createdAt,value
2019-03-10T00:00:35.469Z,7.30
2019-03-10T00:03:03.987Z,7.30
2019-03-10T00:05:32.427Z,7.30
2019-03-10T00:08:00.874Z,7.30
2019-03-10T00:10:29.394Z,7.30
2019-03-10T00:12:57.829Z,7.40
2019-03-10T00:15:26.279Z,7.40
2019-03-10T00:17:54.741Z,7.40
2019-03-10T00:20:23.183Z,7.50
2019-03-10T00:22:51.623Z,7.50
2019-03-10T00:25:20.163Z,7.50
2019-03-10T00:27:48.663Z,7.50
2019-03-10T00:30:18.276Z,7.50
2019-03-10T00:32:46.732Z,7.60
2019-03-10T00:35:15.178Z,7.50
2019-03-10T00:37:43.706Z,7.60
2019-03-10T00:40:44.087Z,7.60
2019-03-10T00:43:21.115Z,7.60
2019-03-10T00:46:18.212Z,7.60
2019-03-10T00:49:16.671Z,7.50
2019-03-10T00:52:08.801Z,7.50
2019-03-10T00:54:37.259Z,7.50
2019-03-10T00:57:05.790Z,7.50
2019-03-10T00:59:34.240Z,7.50
2019-03-10T01:02:02.714Z,7.50
2019-03-10T01:04:31.152Z,7.50
2019-03-10T01:07:01.711Z,7.40
2019-03-10T01:09:30.201Z,7.50
2019-03-10T01:11:58.715Z,7.50
2019-03-10T01:14:27.192Z,7.50
2019-03-10T01:16:56.539Z,7.50
2019-03-10T01:19:25.563Z,7.40
2019-03-10T01:21:54.471Z,7.40
2019-03-10T01:24:22.931Z,7.40
2019-03-10T01:26:51.377Z,7.40
2019-03-10T01:29:19.908Z,7.40
2019-03-10T01:32:08.015Z,7.40
2019-03-10T01:35:06.576Z,7.40
2019-03-10T01:37:35.045Z,7.40
2019-03-10T01:40:04.453Z,7.40
2019-03-10T01:42:33.631Z,7.30
2019-03-10T01:45:02.093Z,7.30
2019-03-10T01:47:30.610Z,7.30
2019-03-10T01:49:59.056Z,7.30
2019-03-10T01:52:27.507Z,7.30
2019-03-10T01:54:55.946Z,7.30
2019-03-10T01:57:24.405Z,7.30
2019-03-10T01:59:52.850Z,7.30
2019-03-10T02:02:25.683Z,7.30
2019-03-10T02:04:51.468Z,7.30
2019-03-10T02:07:19.903Z,7.30
2019-03-10T02:09:48.359Z,7.30
2019-03-10T02:12:16.794Z,7.30
2019-03-10T02:14:45.284Z,7.30
2019-03-10T02:17:13.736Z,7.30
2019-03-10T02:19:42.267Z,7.20
2019-03-10T02:22:10.752Z,7.30
2019-03-10T02:24:39.256Z,7.30
2019-03-10T02:27:07.697Z,7.20
2019-03-10T02:29:36.155Z,7.20
2019-03-10T02:32:04.619Z,7.20
2019-03-10T02:34:33.083Z,7.20
2019-03-10T02:37:01.537Z,7.20
2019-03-10T02:39:29.982Z,7.10
2019-03-10T02:41:58.435Z,7.10
2019-03-10T02:44:26.903Z,7.10
2019-03-10T02:46:55.358Z,7.10
2019-03-10T02:49:23.888Z,7.10
2019-03-10T02:51:52.320Z,7.10
2019-03-10T02:54:20.827Z,7.00
2019-03-10T02:56:49.266Z,7.00
2019-03-10T02:59:17.726Z,7.00
2019-03-10T03:01:46.204Z,7.00
2019-03-10T03:04:14.720Z,7.00
2019-03-10T03:06:43.192Z,7.00
2019-03-10T03:09:11.646Z,7.00
2019-03-10T03:11:40.162Z,7.00
2019-03-10T03:14:08.628Z,7.00
2019-03-10T03:16:37.139Z,6.90
2019-03-10T03:19:05.584Z,6.90
2019-03-10T03:21:42.922Z,6.90
2019-03-10T03:24:04.198Z,6.90
2019-03-10T03:26:32.671Z,6.90
2019-03-10T03:29:01.117Z,6.90
2019-03-10T03:31:30.080Z,6.80
2019-03-10T03:33:58.523Z,6.80
2019-03-10T03:36:29.493Z,6.80
2019-03-10T03:39:25.941Z,6.80
2019-03-10T03:41:54.482Z,6.80
2019-03-10T03:44:22.987Z,6.70
2019-03-10T03:46:51.461Z,6.70
2019-03-10T03:49:19.980Z,6.70
2019-03-10T03:51:48.455Z,6.70
2019-03-10T03:54:16.985Z,6.70
2019-03-10T03:56:45.518Z,6.70
2019-03-10T03:59:13.987Z,6.70
2019-03-10T04:01:46.839Z,6.70
2019-03-10T04:04:15.280Z,6.80
2019-03-10T04:06:43.735Z,6.80
2019-03-10T04:09:12.179Z,6.80
2019-03-10T04:11:40.616Z,6.90
2019-03-10T04:14:09.065Z,6.90
2019-03-10T04:16:37.538Z,6.90
2019-03-10T04:19:06.049Z,7.00
2019-03-10T04:21:34.501Z,7.10
2019-03-10T04:24:02.932Z,7.10
2019-03-10T04:26:31.411Z,7.10
2019-03-10T04:28:59.922Z,7.10
2019-03-10T04:31:28.368Z,7.20
2019-03-10T04:33:56.819Z,7.20
2019-03-10T04:36:25.595Z,7.20
2019-03-10T04:38:54.065Z,7.20
2019-03-10T04:41:22.566Z,7.20
2019-03-10T04:43:51.074Z,7.20
2019-03-10T04:46:19.583Z,7.20
2019-03-10T04:48:48.082Z,7.10
2019-03-10T04:51:16.542Z,7.10
2019-03-10T04:53:44.975Z,7.10
2019-03-10T04:56:18.010Z,7.00
2019-03-10T04:58:48.083Z,7.00
2019-03-10T05:01:16.556Z,7.00
2019-03-10T05:03:44.999Z,7.00
2019-03-10T05:06:13.451Z,6.90
2019-03-10T05:08:41.921Z,6.90
2019-03-10T05:11:10.379Z,6.90
2019-03-10T05:13:38.831Z,6.90
2019-03-10T05:16:07.287Z,6.90
2019-03-10T05:18:35.726Z,6.80
2019-03-10T05:21:04.196Z,6.90
2019-03-10T05:23:35.265Z,6.90
2019-03-10T05:26:04.082Z,6.80
2019-03-10T05:28:34.702Z,6.90
2019-03-10T05:31:03.247Z,6.90
2019-03-10T05:33:31.751Z,6.90
2019-03-10T05:36:00.195Z,6.90
2019-03-10T05:38:28.639Z,6.90
2019-03-10T05:40:57.189Z,6.90
2019-03-10T05:43:25.686Z,6.90
2019-03-10T05:45:54.137Z,6.90
2019-03-10T05:48:22.587Z,6.90
2019-03-10T05:50:51.111Z,6.90
2019-03-10T05:53:19.564Z,6.90
2019-03-10T05:55:47.999Z,6.90
2019-03-10T05:58:16.451Z,6.90
2019-03-10T06:00:44.909Z,6.90
2019-03-10T06:03:13.382Z,6.90
2019-03-10T06:05:41.849Z,6.90
2019-03-10T06:08:10.300Z,6.90
2019-03-10T06:10:38.747Z,6.90
2019-03-10T06:13:07.197Z,6.90
2019-03-10T06:15:35.669Z,6.90
2019-03-10T06:18:13.181Z,6.80
2019-03-10T06:20:34.327Z,6.80
2019-03-10T06:23:02.778Z,6.80
2019-03-10T06:25:31.228Z,6.80
2019-03-10T06:27:59.687Z,6.80
2019-03-10T06:30:28.126Z,6.80
2019-03-10T06:32:56.609Z,6.90
2019-03-10T06:35:25.039Z,6.90
2019-03-10T06:37:53.491Z,6.90
2019-03-10T06:40:31.701Z,6.90
2019-03-10T06:42:52.113Z,6.90
2019-03-10T06:45:20.606Z,6.90
2019-03-10T06:47:49.035Z,6.90
2019-03-10T06:50:17.754Z,6.90
2019-03-10T06:52:46.191Z,6.90
2019-03-10T06:55:14.648Z,6.90
2019-03-10T06:57:43.084Z,6.90
2019-03-10T07:00:13.794Z,6.90
2019-03-10T07:02:42.240Z,7.00
2019-03-10T07:05:11.827Z,6.90
2019-03-10T07:07:40.343Z,6.90
2019-03-10T07:10:11.646Z,7.00
2019-03-10T07:12:40.157Z,7.00
2019-03-10T07:15:10.736Z,7.00
2019-03-10T07:17:39.175Z,7.00
2019-03-10T07:20:13.389Z,7.10
2019-03-10T07:22:41.827Z,7.00
2019-03-10T07:25:10.274Z,7.10
2019-03-10T07:27:40.365Z,7.10
2019-03-10T07:30:27.873Z,7.20
2019-03-10T07:33:00.736Z,7.20
2019-03-10T07:35:45.478Z,7.30
2019-03-10T07:41:20.664Z,7.40
2019-03-10T07:43:50.786Z,7.50
2019-03-10T07:46:20.864Z,7.60
2019-03-10T07:48:50.167Z,7.70
2019-03-10T07:51:35.186Z,7.80
2019-03-10T07:54:05.349Z,7.90
2019-03-10T07:56:50.329Z,8.00
2019-03-10T07:59:20.441Z,8.10
2019-03-10T08:01:50.559Z,8.10
2019-03-10T08:04:23.188Z,8.20
2019-03-10T08:06:55.808Z,8.20
2019-03-10T08:09:34.639Z,8.30
2019-03-10T08:12:21.312Z,8.40
2019-03-10T08:14:51.424Z,8.50
2019-03-10T08:17:24.658Z,8.60
2019-03-10T08:22:47.832Z,8.70
2019-03-10T08:25:24.087Z,8.70
2019-03-10T08:28:01.939Z,8.80
2019-03-10T08:30:43.826Z,8.80
2019-03-10T08:33:16.636Z,8.90
2019-03-10T08:35:52.727Z,8.90
2019-03-10T08:38:39.137Z,9.00
2019-03-10T08:41:09.218Z,9.10
2019-03-10T08:43:39.302Z,9.20
2019-03-10T08:46:12.167Z,9.40
2019-03-10T08:48:44.927Z,9.50
2019-03-10T08:51:29.882Z,9.60
2019-03-10T08:54:06.090Z,9.80
2019-03-10T08:56:38.983Z,9.90
2019-03-10T08:59:25.381Z,10.00
2019-03-10T09:01:57.917Z,10.00
2019-03-10T09:04:33.743Z,10.10
2019-03-10T09:07:15.682Z,10.10
2019-03-10T09:09:48.735Z,10.10
2019-03-10T09:15:11.643Z,10.30
2019-03-10T09:17:41.731Z,10.40
2019-03-10T09:20:20.758Z,10.40
2019-03-10T09:23:05.819Z,10.40
2019-03-10T09:25:38.611Z,10.40
2019-03-10T09:31:18.798Z,10.50
2019-03-10T09:33:48.899Z,10.60
2019-03-10T09:36:19.047Z,10.60
2019-03-10T09:42:09.155Z,10.80
2019-03-10T09:44:54.285Z,10.80
2019-03-10T09:47:40.605Z,10.90
2019-03-10T09:50:14.238Z,10.90
2019-03-10T09:52:44.399Z,11.00
2019-03-10T09:55:14.508Z,11.00
2019-03-10T09:57:53.914Z,11.00
2019-03-10T10:00:29.679Z,11.00
2019-03-10T10:03:14.708Z,11.00
2019-03-10T10:05:56.729Z,11.00
2019-03-10T10:08:26.875Z,11.00
2019-03-10T10:10:56.975Z,11.10
2019-03-10T10:13:27.091Z,11.20
2019-03-10T10:16:00.064Z,11.30
2019-03-10T10:18:48.360Z,11.40
2019-03-10T10:21:27.246Z,11.40
2019-03-10T10:23:57.331Z,11.40
2019-03-10T10:26:30.380Z,11.40
2019-03-10T10:29:00.471Z,11.30
2019-03-10T10:31:36.550Z,11.30
2019-03-10T10:34:06.650Z,11.30
2019-03-10T10:36:52.984Z,11.30
2019-03-10T10:39:39.735Z,11.30
2019-03-10T10:42:18.687Z,11.30
2019-03-10T10:44:48.775Z,11.30
2019-03-10T10:47:18.862Z,11.30
2019-03-10T10:50:07.121Z,11.40
2019-03-10T10:55:47.104Z,11.50
2019-03-10T10:58:19.887Z,11.60
2019-03-10T11:00:59.166Z,11.70
2019-03-10T11:03:31.984Z,11.80
2019-03-10T11:06:19.575Z,12.00
2019-03-10T11:11:52.631Z,12.30
2019-03-10T11:14:28.432Z,12.30
2019-03-10T11:17:04.286Z,12.30
2019-03-10T11:19:34.371Z,12.30
2019-03-10T11:22:04.474Z,12.30
2019-03-10T11:24:34.569Z,12.20
2019-03-10T11:27:04.648Z,12.20
2019-03-10T11:29:43.800Z,12.10
2019-03-10T11:32:14.047Z,12.10
2019-03-10T11:34:47.115Z,12.00
2019-03-10T11:37:28.692Z,12.00
2019-03-10T11:40:02.051Z,12.00
2019-03-10T11:42:35.663Z,11.90
2019-03-10T11:45:24.331Z,11.90
2019-03-10T11:48:00.748Z,11.90
2019-03-10T11:50:47.778Z,11.90
2019-03-10T11:53:25.570Z,11.90
2019-03-10T11:56:01.308Z,11.90
2019-03-10T11:58:53.851Z,11.90
2019-03-10T12:01:40.263Z,11.90
2019-03-10T12:04:10.537Z,11.90
2019-03-10T12:06:49.842Z,11.90
2019-03-10T12:09:20.060Z,12.00
2019-03-10T12:11:48.656Z,12.00
2019-03-10T12:14:17.152Z,12.00
2019-03-10T12:16:45.788Z,12.00
2019-03-10T12:19:33.599Z,12.10
2019-03-10T12:22:02.121Z,12.10
2019-03-10T12:24:30.573Z,12.10
2019-03-10T12:26:59.017Z,12.00
2019-03-10T12:29:27.634Z,12.00
2019-03-10T12:31:56.077Z,12.00
2019-03-10T12:34:24.535Z,12.00
2019-03-10T12:36:53.062Z,11.90
2019-03-10T12:39:21.523Z,11.90
2019-03-10T12:41:58.048Z,11.90
2019-03-10T12:44:20.396Z,11.90
2019-03-10T12:46:48.905Z,11.90
2019-03-10T12:49:17.398Z,11.90
2019-03-10T12:51:45.962Z,11.90
2019-03-10T12:54:14.410Z,11.80
2019-03-10T12:56:42.889Z,11.80
2019-03-10T12:59:11.332Z,11.70
2019-03-10T13:01:39.798Z,11.70
2019-03-10T13:04:08.253Z,11.70
2019-03-10T13:06:36.728Z,11.70
2019-03-10T13:09:07.575Z,11.60
2019-03-10T13:11:36.127Z,11.60
2019-03-10T13:14:04.573Z,11.60
2019-03-10T13:16:33.092Z,11.60
2019-03-10T13:19:01.578Z,11.50
2019-03-10T13:21:30.034Z,11.50
2019-03-10T13:23:58.539Z,11.50
2019-03-10T13:26:27.004Z,11.40
2019-03-10T13:28:55.463Z,11.40
2019-03-10T13:31:23.900Z,11.30
2019-03-10T13:33:52.440Z,11.30
2019-03-10T13:36:20.885Z,11.20
2019-03-10T13:38:49.362Z,11.10
2019-03-10T13:41:17.804Z,10.90
2019-03-10T13:43:46.285Z,10.80
2019-03-10T13:46:14.800Z,10.70
2019-03-10T13:48:43.246Z,10.60
2019-03-10T13:51:11.737Z,10.40
2019-03-10T13:53:40.184Z,10.30
2019-03-10T13:56:08.639Z,10.20
2019-03-10T13:58:37.411Z,10.10
2019-03-10T14:01:05.858Z,10.00
2019-03-10T14:03:34.302Z,9.90
2019-03-10T14:06:02.777Z,9.80
2019-03-10T14:08:31.267Z,9.70
2019-03-10T14:10:59.778Z,9.70
2019-03-10T14:13:28.282Z,9.60
2019-03-10T14:15:56.743Z,9.60
2019-03-10T14:18:25.178Z,9.50
2019-03-10T14:20:54.500Z,9.50
2019-03-10T14:23:22.967Z,9.50
2019-03-10T14:25:51.407Z,9.40
2019-03-10T14:28:22.056Z,9.40
2019-03-10T14:30:50.100Z,9.30
2019-03-10T14:33:18.563Z,9.30
2019-03-10T14:35:47.016Z,9.30
2019-03-10T14:38:15.495Z,9.20
2019-03-10T14:40:44.015Z,9.20
2019-03-10T14:43:13.772Z,9.10
2019-03-10T14:45:42.181Z,9.00
2019-03-10T14:48:10.627Z,8.90
2019-03-10T14:50:39.073Z,8.70
2019-03-10T14:53:07.611Z,8.60
2019-03-10T14:55:36.070Z,8.40
2019-03-10T14:58:05.081Z,8.20
2019-03-10T15:00:33.506Z,8.10
2019-03-10T15:03:01.960Z,8.00
2019-03-10T15:05:30.416Z,7.80
2019-03-10T15:07:58.871Z,7.70
2019-03-10T15:10:27.312Z,7.60
2019-03-10T15:12:55.765Z,7.50
2019-03-10T15:15:24.235Z,7.50
2019-03-10T15:17:52.692Z,7.40
2019-03-10T15:20:21.831Z,7.30
2019-03-10T15:22:50.577Z,7.30
2019-03-10T15:25:25.162Z,7.20
2019-03-10T15:27:53.632Z,7.20
2019-03-10T15:30:26.261Z,7.10
2019-03-10T15:32:55.192Z,7.10
2019-03-10T15:35:23.647Z,7.10
2019-03-10T15:37:52.208Z,7.00
2019-03-10T15:40:20.662Z,7.00
2019-03-10T15:42:51.857Z,6.90
2019-03-10T15:45:20.311Z,6.90
2019-03-10T15:47:48.781Z,6.90
2019-03-10T15:50:34.872Z,6.90
2019-03-10T15:53:03.463Z,6.90
2019-03-10T15:55:31.903Z,6.90
2019-03-10T15:58:00.359Z,6.90
2019-03-10T16:00:28.927Z,6.90
2019-03-10T16:02:57.449Z,6.90
2019-03-10T16:05:26.038Z,6.90
2019-03-10T16:07:54.554Z,6.90
2019-03-10T16:10:23.003Z,6.90
2019-03-10T16:12:51.446Z,6.90
2019-03-10T16:15:24.625Z,6.90
2019-03-10T16:17:53.075Z,6.90
2019-03-10T16:20:21.519Z,6.80
2019-03-10T16:22:49.967Z,6.80
2019-03-10T16:25:19.956Z,6.80
2019-03-10T16:27:49.909Z,6.80
2019-03-10T16:30:20.625Z,6.80
2019-03-10T16:32:48.288Z,6.70
2019-03-10T16:35:16.925Z,6.80
2019-03-10T16:37:45.395Z,6.80
2019-03-10T16:40:15.781Z,6.70
2019-03-10T16:42:43.749Z,6.70
2019-03-10T16:45:37.272Z,6.70
2019-03-10T16:48:05.858Z,6.70
2019-03-10T16:50:34.355Z,6.70
2019-03-10T16:53:02.820Z,6.60
2019-03-10T16:55:31.267Z,6.60
2019-03-10T16:57:59.747Z,6.60
2019-03-10T17:00:28.252Z,6.60
2019-03-10T17:02:57.066Z,6.50
2019-03-10T17:05:25.512Z,6.50
2019-03-10T17:07:53.959Z,6.50
2019-03-10T17:10:26.182Z,6.50
2019-03-10T17:12:54.736Z,6.50
2019-03-10T17:15:26.572Z,6.50
2019-03-10T17:17:55.079Z,6.50
2019-03-10T17:20:23.535Z,6.40
2019-03-10T17:22:52.059Z,6.40
2019-03-10T17:25:20.537Z,6.40
2019-03-10T17:27:48.975Z,6.40
2019-03-10T17:30:24.452Z,6.40
2019-03-10T17:32:52.984Z,6.40
2019-03-10T17:35:21.863Z,6.40
2019-03-10T17:37:50.407Z,6.40
2019-03-10T17:40:21.126Z,6.40
2019-03-10T17:42:49.670Z,6.40
2019-03-10T17:45:19.663Z,6.40
2019-03-10T17:47:48.109Z,6.40
2019-03-10T17:50:18.203Z,6.40
2019-03-10T17:53:07.700Z,6.40
2019-03-10T17:55:36.462Z,6.40
2019-03-10T17:58:04.938Z,6.40
2019-03-10T18:00:35.057Z,6.40
2019-03-10T18:03:03.562Z,6.50
2019-03-10T18:05:32.013Z,6.50
2019-03-10T18:08:00.463Z,6.50
2019-03-10T18:10:28.969Z,6.50
2019-03-10T18:12:57.399Z,6.50
2019-03-10T18:15:25.862Z,6.60
2019-03-10T18:17:54.388Z,6.60
2019-03-10T18:20:23.882Z,6.60
2019-03-10T18:22:52.396Z,6.60
2019-03-10T18:25:20.852Z,6.60
2019-03-10T18:27:49.382Z,6.70
2019-03-10T18:30:44.335Z,6.70
2019-03-10T18:33:12.777Z,6.70
2019-03-10T18:35:41.228Z,6.70
2019-03-10T18:38:09.683Z,6.70
2019-03-10T18:40:38.131Z,6.70
2019-03-10T18:43:06.598Z,6.70
2019-03-10T18:45:35.088Z,6.70
2019-03-10T18:48:03.538Z,6.60
2019-03-10T18:50:32.054Z,6.70
2019-03-10T18:53:00.498Z,6.70
2019-03-10T18:55:29.826Z,6.70
2019-03-10T18:57:58.333Z,6.70
2019-03-10T19:00:28.014Z,6.70
2019-03-10T19:02:58.253Z,6.80
2019-03-10T19:05:26.765Z,6.80
2019-03-10T19:07:55.603Z,6.80
2019-03-10T19:10:24.072Z,6.80
2019-03-10T19:12:52.571Z,6.80
2019-03-10T19:15:44.800Z,6.80
2019-03-10T19:18:13.265Z,6.80
2019-03-10T19:20:41.716Z,6.80
2019-03-10T19:23:10.155Z,6.70
2019-03-10T19:25:38.642Z,6.70
2019-03-10T19:28:07.076Z,6.70
2019-03-10T19:30:35.532Z,6.70
2019-03-10T19:33:03.980Z,6.70
2019-03-10T19:35:32.431Z,6.70
2019-03-10T19:38:00.887Z,6.60
2019-03-10T19:40:29.364Z,6.60
2019-03-10T19:42:57.814Z,6.60
2019-03-10T19:45:26.282Z,6.50
2019-03-10T19:47:54.803Z,6.50
2019-03-10T19:50:29.939Z,6.50
2019-03-10T19:52:58.414Z,6.50
2019-03-10T19:55:27.172Z,6.50
2019-03-10T19:57:55.619Z,6.40
2019-03-10T20:00:24.124Z,6.50
2019-03-10T20:02:52.639Z,6.50
2019-03-10T20:05:21.159Z,6.50
2019-03-10T20:07:49.609Z,6.50
2019-03-10T20:10:20.991Z,6.50
2019-03-10T20:12:49.487Z,6.50
2019-03-10T20:15:20.171Z,6.50
2019-03-10T20:17:48.608Z,6.60
2019-03-10T20:20:36.413Z,6.50
2019-03-10T20:23:04.952Z,6.50
2019-03-10T20:25:33.400Z,6.50
2019-03-10T20:28:01.877Z,6.50
2019-03-10T20:30:30.323Z,6.50
2019-03-10T20:32:58.798Z,6.50
2019-03-10T20:35:27.331Z,6.50
2019-03-10T20:37:55.826Z,6.40
2019-03-10T20:40:27.899Z,6.40
2019-03-10T20:42:56.497Z,6.40
2019-03-10T20:45:25.055Z,6.40
2019-03-10T20:47:56.045Z,6.40
2019-03-10T20:50:23.751Z,6.40
2019-03-10T20:52:52.226Z,6.40
2019-03-10T20:55:20.728Z,6.40
2019-03-10T20:57:49.235Z,6.30
2019-03-10T21:00:22.271Z,6.30
2019-03-10T21:02:50.729Z,6.30
2019-03-10T21:05:19.183Z,6.30
2019-03-10T21:07:47.654Z,6.30
2019-03-10T21:10:20.705Z,6.20
2019-03-10T21:12:49.223Z,6.20
2019-03-10T21:15:26.480Z,6.20
2019-03-10T21:17:55.375Z,6.20
2019-03-10T21:20:25.564Z,6.20
2019-03-10T21:22:54.021Z,6.20
2019-03-10T21:25:29.802Z,6.20
2019-03-10T21:27:58.379Z,6.20
2019-03-10T21:30:31.705Z,6.20
2019-03-10T21:33:00.149Z,6.20
2019-03-10T21:35:28.591Z,6.20
2019-03-10T21:37:57.110Z,6.20
2019-03-10T21:40:46.403Z,6.20
2019-03-10T21:43:14.879Z,6.20
2019-03-10T21:45:43.318Z,6.20
2019-03-10T21:48:11.797Z,6.20
2019-03-10T21:50:40.238Z,6.30
2019-03-10T21:53:08.707Z,6.20
2019-03-10T21:55:37.186Z,6.20
2019-03-10T21:58:05.701Z,6.20
2019-03-10T22:00:34.145Z,6.20
2019-03-10T22:03:02.606Z,6.20
2019-03-10T22:05:31.044Z,6.20
2019-03-10T22:07:59.494Z,6.10
2019-03-10T22:10:28.246Z,6.10
2019-03-10T22:12:57.184Z,6.10
2019-03-10T22:15:25.780Z,6.10
2019-03-10T22:17:54.294Z,6.00
2019-03-10T22:20:22.784Z,6.10
2019-03-10T22:22:51.371Z,6.00
2019-03-10T22:25:19.931Z,6.00
2019-03-10T22:27:48.425Z,6.00
2019-03-10T22:30:21.335Z,6.00
2019-03-10T22:32:49.814Z,5.90
2019-03-10T22:35:18.339Z,5.90
2019-03-10T22:37:46.866Z,5.90
2019-03-10T22:40:17.645Z,5.80
2019-03-10T22:42:46.187Z,5.80
2019-03-10T22:45:19.636Z,5.80
2019-03-10T22:47:48.218Z,5.80
2019-03-10T22:50:19.385Z,5.80
2019-03-10T22:52:47.887Z,5.80
2019-03-10T22:55:37.215Z,5.80
2019-03-10T22:58:25.027Z,5.80
2019-03-10T23:00:55.010Z,5.80
2019-03-10T23:03:23.460Z,5.80
2019-03-10T23:05:51.901Z,5.90
2019-03-10T23:08:20.403Z,5.90
2019-03-10T23:10:48.851Z,5.90
2019-03-10T23:13:17.337Z,5.90
2019-03-10T23:15:45.791Z,5.90
2019-03-10T23:18:14.244Z,6.00
2019-03-10T23:20:42.893Z,6.00
2019-03-10T23:23:11.343Z,6.00
2019-03-10T23:25:39.823Z,5.90
2019-03-10T23:28:08.339Z,6.00
2019-03-10T23:30:36.778Z,6.00
2019-03-10T23:33:05.259Z,6.00
2019-03-10T23:35:33.695Z,5.90
2019-03-10T23:38:02.172Z,5.90
2019-03-10T23:40:30.611Z,5.90
2019-03-10T23:42:59.053Z,5.90
2019-03-10T23:45:27.495Z,5.90
2019-03-10T23:47:55.949Z,5.90
2019-03-10T23:50:24.383Z,5.90
2019-03-10T23:52:52.845Z,5.90
2019-03-10T23:55:21.391Z,5.90
2019-03-10T23:57:49.872Z,5.90
